Aeroporto :
LOGIN :

Iscrizione | Disclaimer

   EN    FR    IT 

 










Sommario :    VFR   VFR Marginale   IFR   IFR Intensivo   IFR Molto Intensivo
Visibilità : 
Base nubi : 
>= 8 km
>= 3000ft
5 / 8 km
1000 / 3000 ft
1500m / 5 km
500 / 1000 ft
800 / 1500m
200 / 500 ft
< 800m
< 200 ft
Simboli :   Temporali  Nebbia  Neve Forte  Precipitazioni Forti  Vento > 20 kt
SIGMETs :   Varie  Temporali  Ghiacco  Turbolenza  Onda orograficha  Ceneri Vulcaniche






- Altitudine del aeroporto : 29 ft
- Codice IATA : SVG


ENZV - Sola

ULTIMO METAR :
  • 231150Z 17012KT 9999 SCT020 BKN040 12/08 Q1012 NOSIG

METARs OBSOLETI :
  • 231120Z 18011KT 9999 SCT018 BKN040 12/09 Q1012 NOSIG
  • 231050Z 18011KT 9999 FEW015 SCT025 BKN040 12/09 Q1012 NOSIG
  • 231020Z 18010KT 9999 FEW015 SCT025 BKN040 11/09 Q1012 NOSIG
  • 230950Z 19009KT 9999 FEW016 SCT025 BKN040 12/09 Q1012 NOSIG
  • 230920Z 18009KT 9999 FEW012 SCT025 BKN040 11/09 Q1012 NOSIG

TAF TAF ENZV
Valido dal 23 a 12 ore il 24 a 12 ore UTC


2312/2412 18012KT 9999 FEW018 BKN040
PROB40
TEMPO 2312/2404 BKN012
BECMG 2404/2406 4000 RA BKN010
TEMPO 2409/2412 2000 RADZ BR OVC004



MetMap, La meteo Aeronautica in un colpo d'occhio ! - Copyright ORBIFLY Dicembre 2007 - Disclaimer

ORBIFLY MET'MAP TEAM :

Programmazione e sviluppo : Alexandra Zaïnal
Concezione e sviluppo : Baudouin d'Aumeries
Co-Programmazione e sviluppo : Marc-Olivier Méhu
Supporto tecnico e logistico : Manuel Goepfert
Aiuto per la traduzione : Arnaldo La Scala

Contatto : metmap@orbifly.com




FONTI E CREDITI :

   NOAA